Terminal Aerodrome Forecast
Issued by NWS

Home | Current Version | Previous Version | Text Only | Print | Product List | Glossary Off
Versions: 1 2 3 4 5 6 7 8 9 10 11 12 13 14

842
FTUS43 KMPX 131721
TAFRNH
TAF
KRNH 131721Z 1318/1418 14003KT P6SM OVC100
     FM132200 13004KT P6SM VCSH SCT025 OVC050
     FM140200 14003KT P6SM SCT050 BKN100
     FM140700 17003KT P6SM SCT250
     FM141600 23004KT P6SM SCT250=

USA.gov is the U.S. government's official web portal to all federal, state and local government web resources and services.